N815DG KCMH-KFFO
Flight info
| Callsign | N815DG |
|---|---|
| Flight time | N/A |
| Altitude | VFR |
| Route | |
| Aircraft | PC12/L-DOV/C |
Departure
| Time | 2026-05-09 00:58 |
|---|---|
| Airport | John Glenn Columbus International Airport (KCMH) |
Arrival
| Time | N/A |
|---|---|
| Airport | Wright-Patterson Air Force Base (KFFO) |
| Time | Latitude | Longitude | Altitude | Speed | Heading |
|---|---|---|---|---|---|
| 2026-05-09 00:58 | 40.06921 | -83.11366 | 1548 ft | 99 kts | 244° |
| 2026-05-09 00:58 | 40.06608 | -83.12165 | 1747 ft | 98 kts | 241° |
| 2026-05-09 00:59 | 40.06300 | -83.12941 | 1941 ft | 96 kts | 242° |
| 2026-05-09 00:59 | 40.05986 | -83.13710 | 2132 ft | 100 kts | 241° |
| 2026-05-09 00:59 | 40.05583 | -83.14649 | 2357 ft | 135 kts | 238° |
| 2026-05-09 00:59 | 40.05090 | -83.15818 | 2568 ft | 158 kts | 241° |
| 2026-05-09 01:00 | 40.04557 | -83.17155 | 2784 ft | 172 kts | 245° |
| 2026-05-09 01:00 | 40.04008 | -83.18597 | 2988 ft | 182 kts | 243° |
| 2026-05-09 01:00 | 40.03433 | -83.20100 | 3246 ft | 186 kts | 243° |
| 2026-05-09 01:00 | 40.02853 | -83.21610 | 3545 ft | 187 kts | 243° |
| 2026-05-09 01:01 | 40.02281 | -83.23124 | 3842 ft | 187 kts | 243° |
| 2026-05-09 01:01 | 40.01778 | -83.24675 | 4132 ft | 187 kts | 252° |
| 2026-05-09 01:01 | 40.01382 | -83.26345 | 4107 ft | 202 kts | 251° |
| 2026-05-09 01:01 | 40.00949 | -83.28152 | 3987 ft | 213 kts | 252° |
| 2026-05-09 01:02 | 40.00467 | -83.30028 | 3771 ft | 219 kts | 246° |
| 2026-05-09 01:02 | 39.99955 | -83.31885 | 3539 ft | 219 kts | 253° |
| 2026-05-09 01:02 | 39.99569 | -83.33785 | 3502 ft | 210 kts | 248° |
| 2026-05-09 01:02 | 39.99136 | -83.35574 | 3498 ft | 203 kts | 253° |
| 2026-05-09 01:03 | 39.98752 | -83.37328 | 3509 ft | 198 kts | 247° |
| 2026-05-09 01:03 | 39.98269 | -83.39000 | 3496 ft | 195 kts | 250° |
| 2026-05-09 01:03 | 39.97942 | -83.40699 | 3501 ft | 194 kts | 252° |
| 2026-05-09 01:03 | 39.97569 | -83.42391 | 3496 ft | 193 kts | 252° |
| 2026-05-09 01:04 | 39.97179 | -83.44081 | 3501 ft | 193 kts | 251° |
| 2026-05-09 01:04 | 39.96785 | -83.45753 | 3494 ft | 193 kts | 252° |
| 2026-05-09 01:04 | 39.96393 | -83.47419 | 3496 ft | 193 kts | 252° |
| 2026-05-09 01:04 | 39.95994 | -83.49091 | 3495 ft | 193 kts | 252° |
| 2026-05-09 01:05 | 39.95594 | -83.50762 | 3493 ft | 193 kts | 251° |
| 2026-05-09 01:05 | 39.95194 | -83.52434 | 3489 ft | 193 kts | 251° |
| 2026-05-09 01:05 | 39.94394 | -83.55776 | 3493 ft | 199 kts | 251° |
| 2026-05-09 01:06 | 39.93970 | -83.57536 | 3497 ft | 207 kts | 251° |
| 2026-05-09 01:06 | 39.93535 | -83.59353 | 3489 ft | 212 kts | 252° |
| 2026-05-09 01:06 | 39.93092 | -83.61203 | 3486 ft | 215 kts | 251° |
| 2026-05-09 01:06 | 39.92646 | -83.63075 | 3492 ft | 217 kts | 251° |
| 2026-05-09 01:07 | 39.92196 | -83.64945 | 3491 ft | 218 kts | 251° |
| 2026-05-09 01:07 | 39.91743 | -83.66835 | 3488 ft | 219 kts | 250° |
| 2026-05-09 01:07 | 39.91288 | -83.68732 | 3483 ft | 220 kts | 251° |
| 2026-05-09 01:07 | 39.90817 | -83.70624 | 3487 ft | 220 kts | 251° |
| 2026-05-09 01:08 | 39.90350 | -83.72520 | 3506 ft | 217 kts | 242° |
| 2026-05-09 01:08 | 39.89677 | -83.74273 | 3484 ft | 218 kts | 253° |
| 2026-05-09 01:08 | 39.89346 | -83.76199 | 3504 ft | 217 kts | 250° |
| 2026-05-09 01:08 | 39.88996 | -83.78094 | 3544 ft | 216 kts | 257° |
| 2026-05-09 01:09 | 39.88976 | -83.80016 | 3852 ft | 208 kts | 270° |
| 2026-05-09 01:09 | 39.89017 | -83.81855 | 4104 ft | 204 kts | 268° |
| 2026-05-09 01:09 | 39.89058 | -83.83775 | 3838 ft | 221 kts | 268° |
| 2026-05-09 01:09 | 39.89122 | -83.85754 | 3527 ft | 206 kts | 269° |
| 2026-05-09 01:10 | 39.88956 | -83.87453 | 3174 ft | 178 kts | 255° |
| 2026-05-09 01:10 | 39.88682 | -83.88946 | 2823 ft | 162 kts | 253° |
| 2026-05-09 01:10 | 39.88385 | -83.90348 | 2471 ft | 156 kts | 253° |
| 2026-05-09 01:10 | 39.88082 | -83.91793 | 2135 ft | 188 kts | 253° |
| 2026-05-09 01:11 | 39.87683 | -83.93565 | 1966 ft | 211 kts | 249° |
| 2026-05-09 01:11 | 39.87305 | -83.94837 | 1910 ft | 216 kts | 249° |
| 2026-05-09 01:11 | 39.86864 | -83.96657 | 1893 ft | 194 kts | 255° |
| 2026-05-09 01:11 | 39.86566 | -83.98058 | 1823 ft | 130 kts | 255° |
| 2026-05-09 01:12 | 39.86272 | -83.98953 | 1760 ft | 101 kts | 246° |
| 2026-05-09 01:12 | 39.85907 | -83.99742 | 1763 ft | 98 kts | 232° |
| 2026-05-09 01:12 | 39.85433 | -84.00553 | 1694 ft | 122 kts | 236° |
| 2026-05-09 01:12 | 39.84882 | -84.01462 | 1433 ft | 134 kts | 231° |
| 2026-05-09 01:13 | 39.84254 | -84.02384 | 1146 ft | 138 kts | 232° |
| 2026-05-09 01:13 | 39.83693 | -84.03264 | 891 ft | 105 kts | 230° |
| 2026-05-09 01:13 | 39.83207 | -84.03955 | 852 ft | 115 kts | 228° |